Аэропорт: Петропавловск. Петропавловск

ICAO: UACP

METAR:
2018/09/19 07:30
UACP 190730Z 13008MPS 9999 FEW046 19/06 Q1012 R05/0/0060 NOSIG RMK QFE747/0996
METAR:
2014/11/02 09:00
TAF UACP 020753Z 0209/0218 21004MPS 9999 BKN030